Cannon AFB, New Mexico
Current Conditions -  °F | °C
As of 5:58 PM on Thursday 18 Dec 2014 (Local Time) from KCVS Reporting Station
Clear Clear  
Wind Chill: 46°   Ceiling: Unl
Heat Index: 46°   Visibility: 10mi
Dew Point: 21°   Wind: 3mph
Humidity: 37%   Direction: 260°W
Pressure: 30.05"   Gusts: NA
Location:  34.38°N, 103.31°W
Report Text: KCVS 190058Z AUTO 26003KT 10SM CLR 08/M06 A3005 RMK AO2 SLP175 T00781063 $
Loading
Personal Weather Stations






























Interactive Weather Map New forecast layout! Learn more

10-Day Weather Forecast

Advertisements
Track Severe Weather on mobile